Time;durP1;ratioP1;P1;durP2;ratioP2;P2;SDS_P1;SDS_P2;PMS_P1;PMS_P2;Temp;Humidity;BMP_temperature;BMP_pressure;BME280_temperature;BME280_humidity;BME280_pressure;Samples;Min_cycle;Max_cycle;Signal;HPM_P1;HPM_P2
2023/03/25 00:01:07;;;;;;;5.75;2.30;;;9.90;99.90;;;;;;4996556;28;20044;-82
2023/03/25 00:03:37;;;;;;;8.47;2.73;;;9.80;99.90;;;;;;4997948;28;20054;-82
2023/03/25 00:06:05;;;;;;;9.73;2.30;;;9.80;99.90;;;;;;4985704;28;20049;-82
2023/03/25 00:08:31;;;;;;;11.47;3.37;;;9.80;99.90;;;;;;5005755;28;20176;-82
2023/03/25 00:10:59;;;;;;;10.57;2.90;;;9.90;99.90;;;;;;4977841;28;20405;-82
2023/03/25 00:13:25;;;;;;;9.77;3.47;;;9.90;99.90;;;;;;4994144;28;20370;-81
2023/03/25 00:15:56;;;;;;;8.40;2.60;;;9.90;99.90;;;;;;4977676;28;20037;-81
2023/03/25 00:18:24;;;;;;;10.50;2.90;;;9.90;99.90;;;;;;5003107;28;20612;-82
2023/03/25 00:20:51;;;;;;;9.13;2.70;;;9.90;99.90;;;;;;5004861;28;20116;-83
2023/03/25 00:23:21;;;;;;;9.43;2.87;;;9.90;99.90;;;;;;4981800;28;20049;-82
2023/03/25 00:25:48;;;;;;;9.77;2.80;;;9.90;99.90;;;;;;4981617;28;20038;-82
2023/03/25 00:28:15;;;;;;;10.13;2.83;;;9.90;99.90;;;;;;4979432;28;20080;-82
2023/03/25 00:30:43;;;;;;;11.67;2.60;;;9.90;99.90;;;;;;4990585;28;20038;-82
2023/03/25 00:33:12;;;;;;;10.63;2.70;;;9.90;99.90;;;;;;4991248;28;20526;-86
2023/03/25 00:35:44;;;;;;;11.57;2.77;;;9.90;99.90;;;;;;4974517;28;20058;-85
2023/03/25 00:38:11;;;;;;;9.37;2.47;;;9.90;99.90;;;;;;4991960;28;21311;-85
2023/03/25 00:40:37;;;;;;;10.97;2.97;;;9.90;99.90;;;;;;4977274;28;20041;-84
2023/03/25 00:43:04;;;;;;;10.13;2.70;;;9.90;99.90;;;;;;4974847;28;20054;-86
2023/03/25 00:45:30;;;;;;;11.67;2.70;;;9.90;99.90;;;;;;4996345;28;20041;-82
2023/03/25 00:47:56;;;;;;;8.83;2.63;;;10.00;99.90;;;;;;4993320;28;20129;-82
2023/03/25 00:50:23;;;;;;;6.70;2.47;;;9.90;99.90;;;;;;4987720;28;20176;-85
2023/03/25 00:52:50;;;;;;;10.70;2.60;;;10.00;99.90;;;;;;4990426;28;20046;-83
2023/03/25 00:55:19;;;;;;;12.27;2.77;;;10.00;99.90;;;;;;4975270;28;20046;-83
2023/03/25 00:57:45;;;;;;;8.37;2.63;;;10.00;99.90;;;;;;4967303;28;20429;-86
2023/03/25 01:00:16;;;;;;;10.90;3.67;;;10.00;99.90;;;;;;4977657;28;20046;-85
2023/03/25 01:02:42;;;;;;;13.77;2.87;;;9.90;99.90;;;;;;4998783;28;20394;-85
2023/03/25 01:05:09;;;;;;;9.97;2.50;;;9.80;99.90;;;;;;5009687;28;20398;-85
2023/03/25 01:07:40;;;;;;;9.57;2.90;;;9.80;99.90;;;;;;4980096;28;20043;-84
2023/03/25 01:10:07;;;;;;;9.23;2.70;;;9.70;99.90;;;;;;4977502;28;20120;-82
2023/03/25 01:12:34;;;;;;;11.07;3.50;;;9.60;99.90;;;;;;4995999;28;20035;-79
2023/03/25 01:15:00;;;;;;;9.60;3.10;;;9.50;99.90;;;;;;4983297;28;20046;-82
2023/03/25 01:17:26;;;;;;;9.63;2.97;;;9.50;99.90;;;;;;4992391;28;20046;-81
2023/03/25 01:19:52;;;;;;;12.27;3.13;;;9.40;99.90;;;;;;5012833;28;20244;-81
2023/03/25 01:22:18;;;;;;;9.00;3.17;;;9.40;99.90;;;;;;4962021;28;20402;-80
2023/03/25 01:24:57;;;;;;;11.02;3.53;;;9.30;99.90;;;;;;4997526;28;20096;-82
2023/03/25 01:27:23;;;;;;;9.20;3.17;;;9.30;99.90;;;;;;4980348;28;20044;-82
2023/03/25 01:29:53;;;;;;;7.23;3.37;;;9.30;99.90;;;;;;4960519;28;20038;-82
2023/03/25 01:32:22;;;;;;;10.03;3.33;;;9.20;99.90;;;;;;4983025;28;20049;-80
2023/03/25 01:34:51;;;;;;;9.87;3.50;;;9.20;99.90;;;;;;4991015;28;20084;-81
2023/03/25 01:37:18;;;;;;;9.53;3.50;;;9.10;99.90;;;;;;4980722;28;20085;-85
2023/03/25 01:39:44;;;;;;;7.77;3.33;;;9.10;99.90;;;;;;5012536;28;20065;-81
2023/03/25 01:42:11;;;;;;;11.17;4.67;;;9.10;99.90;;;;;;4959812;28;20045;-80
2023/03/25 01:44:36;;;;;;;9.33;4.73;;;9.00;99.90;;;;;;4976700;28;20069;-81
2023/03/25 01:47:05;;;;;;;8.53;4.20;;;9.00;99.90;;;;;;4986484;28;20135;-80
2023/03/25 01:49:43;;;;;;;13.40;4.77;;;9.00;99.90;;;;;;4972360;28;20038;-81
2023/03/25 01:52:08;;;;;;;10.23;4.30;;;9.00;99.90;;;;;;4999805;28;20046;-80
2023/03/25 01:54:37;;;;;;;12.30;4.63;;;9.00;99.90;;;;;;4985185;28;20038;-81
2023/03/25 01:57:05;;;;;;;10.03;4.00;;;9.00;99.90;;;;;;4979414;28;20038;-80
2023/03/25 01:59:33;;;;;;;11.60;3.90;;;9.00;99.90;;;;;;4963990;28;20073;-82
2023/03/25 02:02:14;;;;;;;11.60;4.63;;;9.00;99.90;;;;;;4989036;28;20140;-81
2023/03/25 02:04:59;;;;;;;14.33;4.93;;;9.00;99.90;;;;;;4995962;28;20636;-81
2023/03/25 02:07:29;;;;;;;9.47;4.17;;;9.00;99.90;;;;;;4982560;28;20085;-81
2023/03/25 02:10:04;;;;;;;15.27;4.80;;;9.00;99.90;;;;;;4990314;28;20125;-81
2023/03/25 02:12:30;;;;;;;11.37;3.90;;;8.90;99.90;;;;;;4986373;28;20038;-81
2023/03/25 02:14:59;;;;;;;10.33;3.67;;;8.90;99.90;;;;;;4959880;28;20049;-81
2023/03/25 02:17:53;;;;;;;12.57;4.40;;;9.00;99.90;;;;;;4992117;28;20084;-82
2023/03/25 02:20:22;;;;;;;12.70;4.50;;;9.00;99.90;;;;;;4985639;28;20129;-82
2023/03/25 02:23:40;;;;;;;15.37;4.60;;;8.90;99.90;;;;;;4995711;28;20045;-85
2023/03/25 02:26:12;;;;;;;13.20;4.03;;;8.90;99.90;;;;;;4960715;28;20094;-82
2023/03/25 02:29:26;;;;;;;11.38;4.18;;;8.90;99.90;;;;;;4990281;28;20056;-84
2023/03/25 02:32:13;;;;;;;12.93;4.50;;;8.90;99.90;;;;;;4994808;28;20057;-83
2023/03/25 02:35:28;;;;;;;12.83;4.40;;;8.80;99.90;;;;;;4993745;28;20701;-82
2023/03/25 02:38:23;;;;;;;17.03;4.83;;;8.80;99.90;;;;;;4910492;28;20090;-82
2023/03/25 02:41:13;;;;;;;16.30;4.73;;;8.80;99.90;;;;;;4939275;28;20051;-83
2023/03/25 02:43:58;;;;;;;13.30;4.60;;;8.80;99.90;;;;;;4926880;28;20057;-81
2023/03/25 02:46:30;;;;;;;14.10;4.80;;;8.80;99.90;;;;;;4954521;28;20047;-82
2023/03/25 02:49:13;;;;;;;16.57;5.20;;;8.80;99.90;;;;;;4927119;28;20082;-80
2023/03/25 02:52:07;;;;;;;13.23;4.60;;;8.80;99.90;;;;;;4940954;29;20593;-80
2023/03/25 02:54:38;;;;;;;18.00;4.60;;;8.70;99.90;;;;;;4954236;28;20042;-81
2023/03/25 02:57:08;;;;;;;17.07;4.93;;;8.80;99.90;;;;;;4938637;28;20090;-80
2023/03/25 02:59:37;;;;;;;10.37;4.53;;;8.80;99.90;;;;;;4924076;28;20039;-81
2023/03/25 03:02:10;;;;;;;15.20;4.27;;;8.80;99.90;;;;;;4929243;28;20498;-81
2023/03/25 03:04:54;;;;;;;13.35;4.30;;;8.70;99.90;;;;;;4923881;28;20087;-81
2023/03/25 03:07:31;;;;;;;12.20;4.17;;;8.80;99.90;;;;;;4929043;29;20047;-81
2023/03/25 03:09:57;;;;;;;11.37;4.13;;;8.70;99.90;;;;;;4942523;28;20594;-81
2023/03/25 03:12:32;;;;;;;15.77;4.70;;;8.70;99.90;;;;;;4949260;28;20061;-81
2023/03/25 03:15:06;;;;;;;14.53;4.50;;;8.70;99.90;;;;;;4970105;28;20057;-81
2023/03/25 03:18:17;;;;;;;14.97;4.60;;;8.60;99.90;;;;;;5004086;28;20142;-81
2023/03/25 03:20:59;;;;;;;16.08;4.57;;;8.60;99.90;;;;;;4975398;28;20046;-81
2023/03/25 03:23:38;;;;;;;17.45;5.35;;;8.60;99.90;;;;;;4959089;28;20052;-81
2023/03/25 03:26:16;;;;;;;13.00;4.00;;;8.60;99.90;;;;;;5008942;28;20034;-82
2023/03/25 03:29:03;;;;;;;15.17;4.57;;;8.60;99.90;;;;;;4993277;28;20108;-82
2023/03/25 03:31:52;;;;;;;16.40;4.37;;;8.60;99.90;;;;;;4983778;28;20121;-81
2023/03/25 03:34:41;;;;;;;18.87;4.70;;;8.60;99.90;;;;;;4999104;28;20104;-80
2023/03/25 03:37:09;;;;;;;17.67;4.53;;;8.60;99.90;;;;;;4987203;28;20493;-82
2023/03/25 03:39:37;;;;;;;18.40;4.33;;;8.60;99.90;;;;;;4960095;28;20109;-81
2023/03/25 03:42:14;;;;;;;17.67;4.77;;;8.60;99.90;;;;;;4984365;28;20041;-81
2023/03/25 03:44:45;;;;;;;17.73;4.90;;;8.60;99.90;;;;;;5001961;28;20041;-81
2023/03/25 03:47:17;;;;;;;14.20;5.17;;;8.60;99.90;;;;;;4971252;28;20460;-80
2023/03/25 03:50:16;;;;;;;13.03;4.43;;;8.60;99.90;;;;;;5002303;28;20293;-80
2023/03/25 03:52:50;;;;;;;15.07;4.70;;;8.60;99.90;;;;;;4983705;28;20057;-81
2023/03/25 03:55:23;;;;;;;18.03;4.57;;;8.60;99.90;;;;;;5022271;28;20042;-80
2023/03/25 03:58:14;;;;;;;12.63;4.40;;;8.60;99.90;;;;;;4986263;28;20411;-81
2023/03/25 04:00:48;;;;;;;17.60;4.80;;;8.60;99.90;;;;;;4996031;28;20064;-81
2023/03/25 04:03:23;;;;;;;15.90;3.73;;;8.60;99.90;;;;;;4994200;28;20045;-81
2023/03/25 04:06:08;;;;;;;16.77;4.60;;;8.60;99.90;;;;;;4992254;28;20753;-81
2023/03/25 04:08:50;;;;;;;17.67;4.37;;;8.60;99.90;;;;;;4977520;28;20050;-82
2023/03/25 04:11:22;;;;;;;13.73;4.22;;;8.60;99.90;;;;;;4987816;28;20078;-80
2023/03/25 04:13:55;;;;;;;13.17;4.30;;;8.60;99.90;;;;;;4987333;28;20058;-80
2023/03/25 04:16:21;;;;;;;;;;;8.60;99.90;;;;;;4977914;28;20122;-81
2023/03/25 04:18:58;;;;;;;17.17;5.18;;;8.60;99.90;;;;;;4994268;28;19924;-82
2023/03/25 04:21:25;;;;;;;14.23;4.47;;;8.60;99.90;;;;;;5010745;28;20049;-81
2023/03/25 04:23:51;;;;;;;12.43;4.30;;;8.50;99.90;;;;;;4993810;28;20050;-82
2023/03/25 04:26:18;;;;;;;13.67;4.03;;;8.60;99.90;;;;;;4993274;28;20070;-81
2023/03/25 04:28:44;;;;;;;17.40;4.77;;;8.60;99.90;;;;;;4985924;28;20053;-81
2023/03/25 04:31:15;;;;;;;15.17;4.73;;;8.60;99.90;;;;;;5010382;28;20545;-83
2023/03/25 04:33:45;;;;;;;16.43;4.90;;;8.60;99.90;;;;;;4980889;28;20068;-83
2023/03/25 04:36:14;;;;;;;14.83;4.50;;;8.60;99.90;;;;;;4996742;28;20049;-84
2023/03/25 04:38:44;;;;;;;13.60;4.90;;;8.60;99.90;;;;;;4996336;28;20053;-84
2023/03/25 04:41:14;;;;;;;15.77;4.60;;;8.60;99.90;;;;;;4996777;28;20099;-84
2023/03/25 04:43:44;;;;;;;16.27;4.70;;;8.60;99.90;;;;;;5005839;28;20038;-83
2023/03/25 04:46:15;;;;;;;17.03;4.80;;;8.60;99.90;;;;;;4966110;28;20044;-82
2023/03/25 04:48:44;;;;;;;14.20;4.60;;;8.50;99.90;;;;;;5000473;28;20092;-82
2023/03/25 04:51:11;;;;;;;17.57;5.40;;;8.50;99.90;;;;;;4991813;28;20120;-83
2023/03/25 04:53:38;;;;;;;11.67;4.77;;;8.50;99.90;;;;;;5011543;28;20560;-82
2023/03/25 04:56:11;;;;;;;15.53;4.70;;;8.50;99.90;;;;;;4979915;28;20052;-81
2023/03/25 04:58:44;;;;;;;17.63;4.80;;;8.50;99.90;;;;;;5007415;28;20137;-82
2023/03/25 05:01:31;;;;;;;15.23;5.03;;;8.50;99.90;;;;;;5007095;28;20045;-80
2023/03/25 05:04:05;;;;;;;14.13;4.47;;;8.50;99.90;;;;;;4995015;28;20120;-81
2023/03/25 05:06:38;;;;;;;14.50;4.20;;;8.50;99.90;;;;;;5003596;28;20120;-82
2023/03/25 05:09:06;;;;;;;12.47;4.87;;;8.50;99.90;;;;;;4974057;28;20117;-81
2023/03/25 05:11:35;;;;;;;16.00;4.53;;;8.50;99.90;;;;;;4964434;28;20108;-81
2023/03/25 05:14:02;;;;;;;14.90;5.53;;;8.50;99.90;;;;;;4980042;28;20042;-81
2023/03/25 05:16:28;;;;;;;16.43;4.90;;;8.50;99.90;;;;;;5003046;28;20382;-80
2023/03/25 05:18:54;;;;;;;15.53;4.73;;;8.50;99.90;;;;;;4964303;28;20045;-84
2023/03/25 05:21:20;;;;;;;15.57;4.47;;;8.40;99.90;;;;;;5002854;28;20049;-84
2023/03/25 05:23:46;;;;;;;16.57;5.30;;;8.50;99.90;;;;;;4981184;28;20053;-83
2023/03/25 05:26:12;;;;;;;16.37;5.20;;;8.50;99.90;;;;;;4964716;28;20371;-82
2023/03/25 05:28:44;;;;;;;17.63;5.23;;;8.50;99.90;;;;;;4951529;28;20448;-82
2023/03/25 05:31:13;;;;;;;18.35;5.78;;;8.50;99.90;;;;;;4996321;28;20042;-81
2023/03/25 05:33:42;;;;;;;15.67;4.30;;;8.50;99.90;;;;;;4980954;28;20034;-83
2023/03/25 05:36:12;;;;;;;12.43;4.43;;;8.40;99.90;;;;;;4974160;28;20045;-81
2023/03/25 05:38:43;;;;;;;9.70;3.80;;;8.50;99.90;;;;;;4992633;28;20120;-82
2023/03/25 05:41:15;;;;;;;13.20;3.80;;;8.40;99.90;;;;;;4994845;28;20038;-82
2023/03/25 05:43:45;;;;;;;;;;;8.40;99.90;;;;;;4990059;28;20460;-81
2023/03/25 05:46:12;;;;;;;15.10;3.97;;;8.40;99.90;;;;;;4980005;28;19921;-82
2023/03/25 05:48:40;;;;;;;11.30;4.37;;;8.30;99.90;;;;;;5007202;28;20045;-81
2023/03/25 05:51:15;;;;;;;13.13;4.50;;;8.30;99.90;;;;;;4989915;28;20087;-81
2023/03/25 05:53:52;;;;;;;16.40;4.87;;;8.40;99.90;;;;;;4977141;28;20060;-81
2023/03/25 05:56:20;;;;;;;15.30;5.10;;;8.40;99.90;;;;;;4969909;28;20046;-82
2023/03/25 05:58:49;;;;;;;20.50;5.30;;;8.40;99.90;;;;;;4988415;28;20125;-82
2023/03/25 06:01:16;;;;;;;13.27;5.33;;;8.40;99.90;;;;;;4979969;28;20041;-81
2023/03/25 06:03:44;;;;;;;25.00;6.33;;;8.50;99.90;;;;;;4974784;28;20034;-81
2023/03/25 06:06:24;;;;;;;19.83;5.28;;;8.40;99.90;;;;;;5010591;28;20251;-81
2023/03/25 06:08:54;;;;;;;18.40;5.30;;;8.40;99.90;;;;;;5001396;28;20575;-81
2023/03/25 06:11:20;;;;;;;16.70;5.33;;;8.40;99.90;;;;;;4995595;28;20038;-81
2023/03/25 06:13:51;;;;;;;13.77;4.80;;;8.40;99.90;;;;;;4996525;28;20089;-81
2023/03/25 06:16:26;;;;;;;15.60;4.80;;;8.40;99.90;;;;;;5008791;28;20048;-81
2023/03/25 06:18:55;;;;;;;18.83;5.23;;;8.50;99.90;;;;;;4988650;28;20046;-80
2023/03/25 06:21:25;;;;;;;18.97;4.93;;;8.50;99.90;;;;;;4998071;28;20053;-81
2023/03/25 06:23:53;;;;;;;13.97;4.83;;;8.40;99.90;;;;;;4973394;28;20041;-81
2023/03/25 06:26:21;;;;;;;13.63;4.17;;;8.40;99.90;;;;;;4990947;28;20046;-81
2023/03/25 06:28:47;;;;;;;15.60;4.70;;;8.50;99.90;;;;;;4973811;28;20119;-83
2023/03/25 06:31:29;;;;;;;16.13;4.70;;;8.50;99.90;;;;;;4970785;28;20053;-82
2023/03/25 06:33:55;;;;;;;14.70;4.47;;;8.50;99.90;;;;;;5012714;28;20133;-82
2023/03/25 06:36:24;;;;;;;14.20;4.50;;;8.50;99.90;;;;;;4981286;28;20136;-81
2023/03/25 06:38:57;;;;;;;15.23;4.70;;;8.50;99.90;;;;;;4963415;28;20037;-82
2023/03/25 06:41:34;;;;;;;14.50;4.60;;;8.50;99.90;;;;;;4997986;28;20091;-84
2023/03/25 06:44:05;;;;;;;13.10;4.43;;;8.40;99.90;;;;;;5024452;28;20037;-84
2023/03/25 06:46:30;;;;;;;17.60;4.90;;;8.40;99.90;;;;;;4988309;28;20053;-82
2023/03/25 06:49:02;;;;;;;16.58;5.45;;;8.40;99.90;;;;;;4978641;28;20084;-82
2023/03/25 06:51:28;;;;;;;14.93;4.97;;;8.40;99.90;;;;;;4994840;28;20065;-82
2023/03/25 06:53:54;;;;;;;14.57;4.70;;;8.40;99.90;;;;;;4978308;28;20040;-84
2023/03/25 06:56:24;;;;;;;17.10;5.40;;;8.40;99.90;;;;;;5011405;28;20106;-82
2023/03/25 06:58:52;;;;;;;12.63;4.70;;;8.40;99.90;;;;;;4978331;28;20041;-85
2023/03/25 07:01:18;;;;;;;13.27;4.50;;;8.50;99.90;;;;;;4968396;28;20520;-82
2023/03/25 07:04:03;;;;;;;11.55;4.18;;;8.50;99.90;;;;;;4996241;28;20056;-82
2023/03/25 07:06:30;;;;;;;14.97;4.53;;;8.60;99.90;;;;;;4997420;28;20041;-82
2023/03/25 07:08:56;;;;;;;18.60;4.60;;;8.60;99.90;;;;;;4985551;28;20389;-81
2023/03/25 07:11:31;;;;;;;19.90;4.50;;;8.70;99.90;;;;;;4990562;28;20046;-83
2023/03/25 07:13:59;;;;;;;15.80;4.40;;;8.70;99.90;;;;;;4987966;28;20099;-81
2023/03/25 07:16:36;;;;;;;14.30;4.20;;;8.80;99.90;;;;;;4993592;28;20835;-82
2023/03/25 07:19:25;;;;;;;17.77;4.47;;;8.80;99.90;;;;;;4995953;28;20049;-81
2023/03/25 07:21:53;;;;;;;16.67;4.17;;;8.90;99.90;;;;;;4994461;28;20068;-81
2023/03/25 07:24:19;;;;;;;17.30;4.60;;;8.90;99.90;;;;;;4981052;28;20045;-81
2023/03/25 07:26:45;;;;;;;17.57;3.70;;;9.00;99.90;;;;;;5008553;28;20048;-83
2023/03/25 07:29:11;;;;;;;13.50;3.93;;;9.00;99.90;;;;;;4976883;28;20038;-82
2023/03/25 07:31:40;;;;;;;14.33;4.17;;;9.00;99.90;;;;;;4998705;28;20060;-81
2023/03/25 07:34:07;;;;;;;14.50;3.77;;;9.10;99.90;;;;;;4970370;28;20061;-83
2023/03/25 07:36:36;;;;;;;13.70;3.60;;;9.10;99.90;;;;;;4997044;28;20049;-81
2023/03/25 07:39:06;;;;;;;16.20;4.13;;;9.20;99.90;;;;;;4985570;28;20077;-83
2023/03/25 07:41:35;;;;;;;18.23;4.17;;;9.30;99.90;;;;;;4999902;28;20069;-82
2023/03/25 07:44:01;;;;;;;17.77;4.33;;;9.40;99.90;;;;;;4951915;28;20073;-82
2023/03/25 07:46:27;;;;;;;18.37;4.10;;;9.40;99.90;;;;;;4977660;28;20413;-80
2023/03/25 07:48:52;;;;;;;14.00;4.00;;;9.40;99.90;;;;;;4986994;28;20041;-81
2023/03/25 07:51:19;;;;;;;15.97;4.17;;;9.40;99.90;;;;;;4962194;28;20041;-80
2023/03/25 07:53:45;;;;;;;17.33;3.90;;;9.30;99.90;;;;;;4990123;28;20129;-82
2023/03/25 07:56:11;;;;;;;16.43;4.13;;;9.20;99.90;;;;;;4993737;28;20041;-81
2023/03/25 07:58:37;;;;;;;17.13;3.87;;;9.10;99.90;;;;;;5005170;28;20533;-79
2023/03/25 08:01:04;;;;;;;17.73;3.90;;;9.10;99.90;;;;;;5018016;28;20069;-82
2023/03/25 08:03:30;;;;;;;16.83;3.83;;;9.00;99.90;;;;;;4993354;28;20116;-80
2023/03/25 08:06:02;;;;;;;11.60;3.80;;;8.90;99.90;;;;;;5008577;28;20481;-83
2023/03/25 08:08:31;;;;;;;15.32;4.32;;;8.90;99.90;;;;;;4996579;28;20124;-81
2023/03/25 08:10:57;;;;;;;13.80;3.70;;;8.80;99.90;;;;;;5003572;28;20057;-81
2023/03/25 08:13:23;;;;;;;13.03;3.63;;;8.90;99.90;;;;;;4985890;28;20040;-83
2023/03/25 08:15:52;;;;;;;14.60;3.23;;;8.90;99.90;;;;;;5008701;28;20049;-83
2023/03/25 08:18:18;;;;;;;18.13;3.70;;;8.90;99.90;;;;;;4993459;28;20136;-81
2023/03/25 08:20:44;;;;;;;14.30;3.20;;;9.00;99.90;;;;;;5016704;28;20029;-80
2023/03/25 08:23:11;;;;;;;17.70;3.73;;;9.00;99.90;;;;;;4965787;28;20528;-79
2023/03/25 08:25:41;;;;;;;18.93;3.37;;;9.00;99.90;;;;;;4998366;28;20052;-82
2023/03/25 08:28:07;;;;;;;17.70;3.57;;;9.00;99.90;;;;;;5014951;28;20127;-81
2023/03/25 08:30:37;;;;;;;13.07;3.60;;;8.90;99.90;;;;;;4984200;28;20128;-82
2023/03/25 08:33:08;;;;;;;12.00;2.70;;;8.90;99.90;;;;;;5003926;28;20040;-82
2023/03/25 08:35:36;;;;;;;16.70;3.20;;;8.90;99.90;;;;;;4980340;28;20133;-81
2023/03/25 08:38:05;;;;;;;11.87;3.03;;;8.90;99.90;;;;;;4980522;28;20049;-80
2023/03/25 08:40:35;;;;;;;13.60;3.43;;;8.90;99.90;;;;;;4996900;28;20557;-81
2023/03/25 08:43:04;;;;;;;11.83;3.00;;;8.80;99.90;;;;;;4996819;28;20126;-83
2023/03/25 08:45:34;;;;;;;15.40;3.33;;;8.90;99.90;;;;;;4980408;28;20509;-81
2023/03/25 08:48:00;;;;;;;15.10;3.50;;;9.00;99.90;;;;;;4993280;28;20398;-81
2023/03/25 08:50:27;;;;;;;15.93;3.90;;;9.20;99.90;;;;;;4982113;28;20046;-82
2023/03/25 08:52:56;;;;;;;18.87;4.43;;;9.30;99.90;;;;;;4992320;28;20045;-82
2023/03/25 08:55:25;;;;;;;17.50;3.90;;;9.50;99.90;;;;;;4989415;28;20046;-83
2023/03/25 08:57:51;;;;;;;15.47;3.67;;;9.60;99.90;;;;;;4987589;28;20140;-81
2023/03/25 09:00:22;;;;;;;20.13;4.03;;;9.60;99.90;;;;;;5001952;28;20125;-82
2023/03/25 09:02:49;;;;;;;17.35;4.20;;;9.60;99.90;;;;;;4999872;28;20049;-81
2023/03/25 09:05:15;;;;;;;15.10;4.17;;;9.50;99.90;;;;;;4995142;28;20041;-81
2023/03/25 09:07:41;;;;;;;20.70;4.97;;;9.50;99.90;;;;;;4971162;28;20180;-82
2023/03/25 09:10:08;;;;;;;19.80;4.63;;;9.50;99.90;;;;;;4975695;28;20053;-82
2023/03/25 09:12:34;;;;;;;15.53;4.53;;;9.50;99.90;;;;;;4992321;28;20037;-81
2023/03/25 09:15:00;;;;;;;24.63;4.93;;;9.40;99.90;;;;;;4994635;28;20045;-81
2023/03/25 09:17:26;;;;;;;19.03;5.13;;;9.40;99.90;;;;;;4965966;28;20520;-81
2023/03/25 09:19:54;;;;;;;17.27;3.97;;;9.40;99.90;;;;;;4978356;28;20042;-81
2023/03/25 09:22:20;;;;;;;20.20;4.10;;;9.30;99.90;;;;;;4983046;28;20510;-81
2023/03/25 09:24:45;;;;;;;16.40;4.03;;;9.40;99.90;;;;;;4983275;28;20038;-80
2023/03/25 09:27:14;;;;;;;22.90;4.67;;;9.50;99.90;;;;;;4965151;28;20069;-82
2023/03/25 09:29:40;;;;;;;16.43;4.20;;;9.60;99.90;;;;;;4990318;28;20435;-80
2023/03/25 09:32:06;;;;;;;19.10;3.87;;;9.60;99.90;;;;;;5004650;28;20053;-81
2023/03/25 09:34:31;;;;;;;17.40;4.03;;;9.60;99.90;;;;;;4994241;28;20410;-82
2023/03/25 09:36:57;;;;;;;20.87;4.63;;;9.70;99.90;;;;;;4987415;28;20561;-81
2023/03/25 09:39:23;;;;;;;15.77;3.80;;;9.80;99.90;;;;;;4996360;28;20041;-82
2023/03/25 09:42:16;;;;;;;15.30;4.83;;;10.00;99.90;;;;;;4992158;28;20389;-79
2023/03/25 09:45:03;;;;;;;13.07;3.73;;;10.30;99.90;;;;;;4993145;28;20041;-82
2023/03/25 09:47:33;;;;;;;13.33;3.53;;;10.60;99.90;;;;;;5022797;28;20125;-82
2023/03/25 09:50:09;;;;;;;16.67;4.10;;;10.70;99.90;;;;;;4998517;28;20041;-83
2023/03/25 09:52:49;;;;;;;8.97;3.13;;;10.60;99.90;;;;;;4993792;28;20087;-83
2023/03/25 09:55:24;;;;;;;13.63;3.60;;;10.50;99.90;;;;;;4995554;28;20733;-81
2023/03/25 09:57:55;;;;;;;11.53;3.03;;;10.30;99.90;;;;;;4996390;28;20037;-82
2023/03/25 10:00:25;;;;;;;8.63;2.40;;;10.20;99.90;;;;;;5006395;28;20042;-82
2023/03/25 10:03:06;;;;;;;11.53;3.30;;;10.00;99.90;;;;;;4981677;28;20046;-81
2023/03/25 10:05:49;;;;;;;12.18;2.95;;;10.00;99.90;;;;;;5013674;28;20052;-82
2023/03/25 10:08:29;;;;;;;12.93;2.83;;;9.90;99.90;;;;;;4993516;28;20080;-82
2023/03/25 10:11:09;;;;;;;13.10;3.30;;;9.80;99.90;;;;;;5029636;28;20432;-81
2023/03/25 10:13:47;;;;;;;12.30;3.70;;;9.80;99.90;;;;;;4988510;28;20041;-81
2023/03/25 10:16:31;;;;;;;16.80;3.43;;;9.80;99.90;;;;;;4980145;28;20104;-81
2023/03/25 10:19:34;;;;;;;15.20;3.33;;;9.90;99.90;;;;;;4993984;28;20049;-81
2023/03/25 10:22:10;;;;;;;13.60;3.37;;;9.90;99.90;;;;;;5025681;28;20044;-81
2023/03/25 10:24:45;;;;;;;16.67;3.60;;;10.00;99.90;;;;;;4989035;28;20201;-81
2023/03/25 10:27:25;;;;;;;15.17;3.37;;;10.00;99.90;;;;;;4997501;28;20055;-81
2023/03/25 10:30:13;;;;;;;15.70;3.80;;;10.10;99.90;;;;;;5030799;28;20144;-81
2023/03/25 10:33:00;;;;;;;14.93;3.73;;;10.20;99.90;;;;;;4994240;28;20052;-82
2023/03/25 10:35:29;;;;;;;18.97;4.30;;;10.30;99.90;;;;;;4987783;28;20065;-82
2023/03/25 10:38:23;;;;;;;15.70;3.40;;;10.30;99.90;;;;;;5014070;28;20041;-82
2023/03/25 10:41:06;;;;;;;9.03;3.03;;;10.40;99.90;;;;;;4997233;28;20037;-82
2023/03/25 10:43:37;;;;;;;14.77;3.90;;;10.30;99.90;;;;;;4985450;28;20089;-83
2023/03/25 10:46:46;;;;;;;16.70;3.60;;;10.30;99.90;;;;;;4992835;28;20034;-82
2023/03/25 10:49:21;;;;;;;15.00;3.50;;;10.20;99.90;;;;;;5014082;28;20050;-82
2023/03/25 10:51:52;;;;;;;17.30;3.60;;;10.10;99.90;;;;;;4986804;28;20060;-81
2023/03/25 10:54:20;;;;;;;14.40;3.47;;;10.10;99.90;;;;;;4988160;28;20041;-83
2023/03/25 10:56:50;;;;;;;12.93;3.87;;;10.00;99.90;;;;;;4991425;28;22255;-82
2023/03/25 10:59:30;;;;;;;15.83;4.03;;;10.10;99.90;;;;;;4997873;28;20756;-81
2023/03/25 11:01:57;;;;;;;16.10;3.27;;;10.30;99.90;;;;;;4982302;28;20045;-84
2023/03/25 11:04:31;;;;;;;15.83;3.67;;;10.40;99.90;;;;;;4995174;28;20412;-82
2023/03/25 11:06:59;;;;;;;16.13;3.47;;;10.50;99.90;;;;;;5013026;28;20506;-82
2023/03/25 11:09:31;;;;;;;14.00;3.33;;;10.50;99.90;;;;;;4978089;28;20042;-82
2023/03/25 11:12:01;;;;;;;;;;;10.60;99.90;;;;;;5012654;28;20103;-82
2023/03/25 11:14:28;;;;;;;12.93;3.10;;;10.60;99.90;;;;;;4997317;28;19931;-82
2023/03/25 11:17:15;;;;;;;16.53;4.20;;;10.70;99.90;;;;;;5012853;28;20053;-83
2023/03/25 11:19:59;;;;;;;12.80;3.30;;;10.70;99.90;;;;;;4985104;28;20048;-82
2023/03/25 11:22:33;;;;;;;12.60;3.63;;;10.70;99.90;;;;;;4997393;28;20042;-82
2023/03/25 11:25:20;;;;;;;12.87;3.23;;;10.70;99.90;;;;;;4993056;28;20470;-83
2023/03/25 11:27:51;;;;;;;11.20;2.83;;;10.60;99.90;;;;;;5009646;28;20053;-81
2023/03/25 11:30:20;;;;;;;14.27;3.13;;;10.50;99.90;;;;;;4977863;28;20038;-83
2023/03/25 11:33:01;;;;;;;13.47;3.60;;;10.60;99.90;;;;;;4985770;28;20045;-83
2023/03/25 11:35:30;;;;;;;11.15;3.15;;;10.80;99.90;;;;;;5004769;28;20544;-81
2023/03/25 11:37:59;;;;;;;16.07;3.83;;;10.90;99.90;;;;;;5012530;28;20045;-83
2023/03/25 11:40:27;;;;;;;12.47;2.93;;;11.10;99.90;;;;;;4996820;28;20049;-81
2023/03/25 11:42:58;;;;;;;15.03;3.27;;;11.30;99.90;;;;;;4992743;28;20037;-82
2023/03/25 11:45:44;;;;;;;9.98;2.65;;;11.60;99.90;;;;;;5001740;28;20124;-80
2023/03/25 11:48:21;;;;;;;14.33;3.70;;;11.60;99.90;;;;;;4994035;28;20041;-85
2023/03/25 11:50:56;;;;;;;14.83;3.13;;;11.70;99.90;;;;;;5010778;28;20161;-83
2023/03/25 11:53:25;;;;;;;13.37;3.20;;;11.90;99.90;;;;;;5004907;28;20049;-83
2023/03/25 11:56:01;;;;;;;13.47;3.73;;;12.00;99.90;;;;;;4986744;28;20045;-83
2023/03/25 11:58:30;;;;;;;11.30;3.23;;;12.00;99.90;;;;;;4996534;28;20049;-84
2023/03/25 12:01:02;;;;;;;11.83;3.13;;;12.00;99.90;;;;;;4997957;28;20045;-83
2023/03/25 12:03:32;;;;;;;9.38;3.05;;;12.10;99.90;;;;;;4984119;28;20038;-83
2023/03/25 12:06:06;;;;;;;11.53;3.03;;;12.10;99.90;;;;;;4991883;28;20045;-81
2023/03/25 12:08:48;;;;;;;12.47;3.17;;;12.00;99.90;;;;;;5001962;28;20493;-84
2023/03/25 12:11:27;;;;;;;10.13;2.47;;;11.80;99.90;;;;;;4986275;28;20091;-84
2023/03/25 12:14:22;;;;;;;13.63;3.03;;;11.70;99.90;;;;;;4989150;28;20119;-82
2023/03/25 12:16:57;;;;;;;14.00;2.90;;;11.70;99.90;;;;;;4992473;28;20042;-83
2023/03/25 12:19:55;;;;;;;13.93;3.07;;;11.70;99.90;;;;;;4977800;28;20049;-84
2023/03/25 12:22:24;;;;;;;15.10;3.30;;;11.60;99.90;;;;;;4978615;28;20056;-83
2023/03/25 12:25:17;;;;;;;10.37;3.40;;;11.60;99.90;;;;;;4982723;28;20041;-83
2023/03/25 12:28:09;;;;;;;12.60;2.83;;;11.50;99.90;;;;;;4994677;28;20049;-83
2023/03/25 12:30:40;;;;;;;11.35;2.67;;;11.60;99.90;;;;;;4981465;28;20637;-83
2023/03/25 12:33:12;;;;;;;13.10;2.85;;;11.70;99.90;;;;;;4978854;28;20050;-83
2023/03/25 12:35:46;;;;;;;12.00;2.80;;;11.80;99.90;;;;;;4996180;28;20065;-83
2023/03/25 12:38:29;;;;;;;9.90;2.50;;;11.90;99.90;;;;;;4983606;28;20053;-83
2023/03/25 12:41:13;;;;;;;11.67;3.03;;;12.00;99.90;;;;;;4982686;28;20033;-84
2023/03/25 12:44:00;;;;;;;10.20;2.63;;;12.10;99.90;;;;;;5006803;28;20049;-83
2023/03/25 12:46:45;;;;;;;21.70;3.30;;;12.20;99.90;;;;;;4987951;28;20073;-83
2023/03/25 12:49:14;;;;;;;10.43;2.72;;;12.20;99.90;;;;;;4978270;28;20044;-83
2023/03/25 12:52:02;;;;;;;11.03;3.67;;;12.10;99.90;;;;;;4986710;28;20125;-83
2023/03/25 12:54:46;;;;;;;13.37;3.07;;;12.20;99.90;;;;;;5006872;28;20045;-82
2023/03/25 12:57:12;;;;;;;14.27;2.70;;;12.10;99.90;;;;;;5011563;28;20053;-83
2023/03/25 13:00:19;;;;;;;16.73;3.67;;;12.00;99.90;;;;;;4977315;28;20065;-83
2023/03/25 13:03:01;;;;;;;10.33;2.97;;;12.00;99.90;;;;;;4997993;28;20076;-83
2023/03/25 13:05:38;;;;;;;10.02;2.60;;;11.90;99.90;;;;;;4987910;28;20045;-83
2023/03/25 13:08:13;;;;;;;14.60;2.97;;;11.90;99.90;;;;;;5015722;28;20050;-81
2023/03/25 13:10:44;;;;;;;12.70;3.20;;;12.00;99.90;;;;;;5010349;28;20430;-82
2023/03/25 13:13:15;;;;;;;9.52;2.65;;;12.20;99.90;;;;;;4990112;28;20069;-83
2023/03/25 13:15:47;;;;;;;11.93;2.63;;;12.40;99.90;;;;;;5020633;28;20072;-82